»·PEaware :: TCMSM KBUR-KLAS

TCMSM :: KBUR-KLAS

FLIGHT INFORMATION

Flight Status: Arrived
Operator: Unknown
More flights by this operator :: More flights under this callsign
Pilot: Derin Hakan K. (22511)
Aircraft: CESSNA 182 SKYLANE
(C182)
More flights by this aircraft type
Origin: KBUR Bob Hope-Burbank
United States
Destination: KLAS McCarran Intl
United States
More flights between these airports :: More routes between these airports
Route: VNY3 DAG CRESO4
File this flight plan on PilotEdge
Remarks:
Altitude:
(Current/Filed)
11,000ft
Speed:
(Current/Filed)
125kts
Departed: 09-Dec-20 09:52 AM
Arrived: 09-Dec-20 11:21 AM
Distance/Time
Traveled:
193nm/1:28
Distance/Time
To Go:
Arrived

Flight Plot

Page will automatically refresh every two minutes.

Flight plan parsing failed; only flown route is shown


Map Options




Map Legend


Flown Route
Filed Route
Departure Airport
Arrival Airport
Navaid (VOR, NDB)
Fix

Horizontal Profiles

Position Reports

Time Latitude Longitude Heading Altitude Ground
Speed
09-Dec-20 09:34 34.200211 -118.358870 280 723ft 0kts
09-Dec-20 09:35 34.200211 -118.358870 280 723ft 0kts
09-Dec-20 09:36 34.200214 -118.358889 279 723ft 0kts
09-Dec-20 09:37 34.200214 -118.358889 279 723ft 0kts
09-Dec-20 09:38 34.200214 -118.358889 279 723ft 0kts
09-Dec-20 09:39 34.200214 -118.358889 279 723ft 0kts
09-Dec-20 09:41 34.200211 -118.358870 280 723ft 0kts
09-Dec-20 09:42 34.200211 -118.358870 280 723ft 0kts
09-Dec-20 09:43 34.200211 -118.358870 280 723ft 0kts
09-Dec-20 09:44 34.200211 -118.358870 280 723ft 0kts
09-Dec-20 09:45 34.200211 -118.358870 280 723ft 0kts
09-Dec-20 09:46 34.200215 -118.358876 309 723ft 0kts
09-Dec-20 09:47 34.201314 -118.358836 346 727ft 8kts
09-Dec-20 09:48 34.205340 -118.359693 347 741ft 26kts
09-Dec-20 09:49 34.209612 -118.360875 345 762ft 11kts
09-Dec-20 09:50 34.211515 -118.361282 32 769ft 0kts
09-Dec-20 09:51 34.201613 -118.358015 171 1194ft 77kts
09-Dec-20 09:52 34.182941 -118.373057 225 2300ft 88kts
09-Dec-20 09:53 34.165498 -118.394673 225 3411ft 91kts
09-Dec-20 09:54 34.163224 -118.416451 338 4390ft 92kts
09-Dec-20 09:55 34.189070 -118.421183 352 5498ft 98kts
09-Dec-20 09:56 34.215817 -118.425317 352 6722ft 92kts
09-Dec-20 09:57 34.239396 -118.428957 352 8005ft 80kts
09-Dec-20 09:58 34.262181 -118.432484 352 8993ft 103kts
09-Dec-20 09:59 34.298884 -118.439046 349 9627ft 128kts
09-Dec-20 10:00 34.335509 -118.447132 349 10476ft 133kts
09-Dec-20 10:01 34.373955 -118.456781 345 11002ft 152kts
09-Dec-20 10:02 34.406672 -118.423227 54 11000ft 166kts
09-Dec-20 10:03 34.435907 -118.376211 52 11000ft 168kts
09-Dec-20 10:04 34.464974 -118.329918 52 11000ft 168kts
09-Dec-20 10:05 34.494682 -118.282567 52 11000ft 168kts
09-Dec-20 10:06 34.525656 -118.233120 52 11000ft 168kts
09-Dec-20 10:07 34.555427 -118.185508 52 11000ft 168kts
09-Dec-20 10:08 34.584261 -118.139333 52 11000ft 168kts
09-Dec-20 10:09 34.613075 -118.093130 52 11000ft 168kts
09-Dec-20 10:10 34.633028 -118.042066 80 11000ft 168kts
09-Dec-20 10:11 34.639867 -117.985109 82 11000ft 168kts
09-Dec-20 10:12 34.646209 -117.927781 82 11000ft 168kts
09-Dec-20 10:13 34.652432 -117.870714 82 11000ft 168kts
09-Dec-20 10:14 34.658637 -117.813488 82 11000ft 168kts
09-Dec-20 10:15 34.666297 -117.756433 73 11000ft 168kts
09-Dec-20 10:16 34.680213 -117.700215 72 11000ft 168kts
09-Dec-20 10:17 34.694721 -117.643972 72 11000ft 168kts
09-Dec-20 10:18 34.709142 -117.587685 72 11000ft 168kts
09-Dec-20 10:19 34.723484 -117.531547 72 11000ft 168kts
09-Dec-20 10:20 34.737754 -117.475566 72 11000ft 168kts
09-Dec-20 10:21 34.752028 -117.419446 72 11000ft 168kts
09-Dec-20 10:22 34.766341 -117.363053 72 11000ft 168kts
09-Dec-20 10:23 34.780624 -117.306663 72 11000ft 168kts
09-Dec-20 10:24 34.794828 -117.250459 72 11000ft 168kts
09-Dec-20 10:25 34.808856 -117.194830 72 11000ft 168kts
09-Dec-20 10:26 34.823019 -117.138542 72 11000ft 168kts
09-Dec-20 10:27 34.837174 -117.082166 72 11000ft 168kts
09-Dec-20 10:28 34.851364 -117.025527 72 11000ft 168kts
09-Dec-20 10:29 34.865361 -116.969534 72 11000ft 168kts
09-Dec-20 10:30 34.879302 -116.913647 72 11000ft 168kts
09-Dec-20 10:31 34.893197 -116.857820 72 11000ft 168kts
09-Dec-20 10:32 34.907068 -116.801965 72 11000ft 168kts
09-Dec-20 10:33 34.920834 -116.746420 72 11000ft 168kts
09-Dec-20 10:34 34.934673 -116.690450 72 11000ft 168kts
09-Dec-20 10:35 34.948614 -116.633948 72 11000ft 168kts
09-Dec-20 10:36 34.963189 -116.577769 62 11000ft 168kts
09-Dec-20 10:37 34.985856 -116.525484 61 11000ft 168kts
09-Dec-20 10:38 35.008904 -116.473506 61 11000ft 168kts
09-Dec-20 10:39 35.031911 -116.421657 61 11000ft 168kts
09-Dec-20 10:40 35.054973 -116.369620 61 11000ft 168kts
09-Dec-20 10:41 35.078100 -116.317370 61 11000ft 168kts
09-Dec-20 10:42 35.101225 -116.265040 61 11000ft 168kts
09-Dec-20 10:43 35.124345 -116.212636 61 11000ft 168kts
09-Dec-20 10:44 35.147295 -116.160539 61 11000ft 168kts
09-Dec-20 10:45 35.169527 -116.109997 61 11000ft 168kts
09-Dec-20 10:46 35.191621 -116.059693 61 11000ft 168kts
09-Dec-20 10:47 35.213834 -116.009042 61 11000ft 168kts
09-Dec-20 10:48 35.236237 -115.957881 61 11000ft 168kts
09-Dec-20 10:49 35.257161 -115.910030 61 11000ft 168kts
09-Dec-20 10:50 35.280013 -115.857689 61 11000ft 168kts
09-Dec-20 10:51 35.302832 -115.805345 61 11000ft 168kts
09-Dec-20 10:52 35.331479 -115.757919 59 10998ft 168kts
09-Dec-20 10:53 35.364453 -115.714778 46 11000ft 168kts
09-Dec-20 10:54 35.397337 -115.671331 47 11000ft 168kts
09-Dec-20 10:55 35.430066 -115.627666 47 10999ft 167kts
09-Dec-20 10:56 35.464262 -115.581931 47 11000ft 166kts
09-Dec-20 10:57 35.497565 -115.537328 47 11000ft 166kts
09-Dec-20 10:58 35.530238 -115.493540 47 10403ft 164kts
09-Dec-20 11:00 35.560846 -115.452499 47 9998ft 145kts
09-Dec-20 11:01 35.588250 -115.415688 47 10001ft 146kts
09-Dec-20 11:02 35.617610 -115.376179 47 10000ft 154kts
09-Dec-20 11:03 35.647662 -115.335796 47 10000ft 155kts
09-Dec-20 11:04 35.677789 -115.295194 47 10000ft 155kts
09-Dec-20 11:05 35.707784 -115.254711 47 10000ft 155kts
09-Dec-20 11:06 35.737890 -115.214028 47 10000ft 155kts
09-Dec-20 11:07 35.768039 -115.173237 47 10000ft 155kts
09-Dec-20 11:08 35.798716 -115.133200 47 10000ft 155kts
09-Dec-20 11:09 35.828822 -115.092139 47 10000ft 155kts
09-Dec-20 11:10 35.861963 -115.059591 4 9889ft 156kts
09-Dec-20 11:11 35.904830 -115.057375 2 9150ft 142kts
09-Dec-20 11:12 35.946116 -115.055563 2 8219ft 144kts
09-Dec-20 11:13 35.986534 -115.053806 2 7138ft 137kts
09-Dec-20 11:14 36.023419 -115.052258 1 5984ft 115kts
09-Dec-20 11:15 36.059347 -115.050679 2 5093ft 139kts
09-Dec-20 11:16 36.095651 -115.052389 340 3898ft 127kts
09-Dec-20 11:17 36.115378 -115.080597 288 2937ft 91kts
09-Dec-20 11:18 36.121861 -115.112040 269 2986ft 91kts
09-Dec-20 11:18 36.120743 -115.138583 240 2945ft 93kts
09-Dec-20 11:20 36.098595 -115.157057 204 2102ft 66kts
09-Dec-20 11:20 36.094161 -115.160756 288 2109ft 0kts
09-Dec-20 11:22 36.094203 -115.160882 293 2109ft 6kts
09-Dec-20 11:22 36.093403 -115.162508 202 2115ft 10kts
09-Dec-20 11:23 36.090245 -115.164235 204 2131ft 16kts
09-Dec-20 11:24 36.085880 -115.166731 206 2150ft 6kts

Navigation Log

Ident Type
Flight plan parsing failed, navigation log unavailable